Terminal Aerodrome Forecast
Issued by NWS

Home | Current Version | Previous Version | Text Only | Print | Product List | Glossary On
Versions: 1 2 3 4 5 6 7 8 9 10 11 12 13 14 15 16 17 18 19 20 21 22 23 24 25 26 27 28 29 30 31 32 33 34 35 36 37 38 39 40
000
FTUS43 KFGF 170522
TAFTVF
TAF
KTVF 170522Z 1706/1806 02003KT P6SM OVC004
     FM170900 01005KT P6SM BKN003
     FM171200 36005KT P6SM BKN008
     FM171500 35007KT P6SM SCT020
     FM180100 34005KT P6SM FEW250=

USA.gov is the U.S. government's official web portal to all federal, state and local government web resources and services.